Time;durP1;ratioP1;P1;durP2;ratioP2;P2;SDS_P1;SDS_P2;PMS_P1;PMS_P2;Temp;Humidity;BMP_temperature;BMP_pressure;BME280_temperature;BME280_humidity;BME280_pressure;Samples;Min_cycle;Max_cycle;Signal;HPM_P1;HPM_P2
2021/06/20 00:01:01;;;;;;;83.87;12.60;;;24.60;75.70;;;;;;1870520;75;21072;-56
2021/06/20 00:03:30;;;;;;;79.37;12.70;;;24.70;75.70;;;;;;1897141;76;21033;-56
2021/06/20 00:06:02;;;;;;;112.03;14.98;;;24.70;75.80;;;;;;1897244;75;21026;-56
2021/06/20 00:08:31;;;;;;;131.70;15.95;;;24.60;75.70;;;;;;1897024;75;21066;-56
2021/06/20 00:11:01;;;;;;;108.07;14.47;;;24.60;75.60;;;;;;1897086;75;21075;-56
2021/06/20 00:13:30;;;;;;;123.53;15.40;;;24.50;75.50;;;;;;1897109;76;21001;-56
2021/06/20 00:16:00;;;;;;;89.35;13.40;;;24.50;75.60;;;;;;1897152;76;21025;-56
2021/06/20 00:18:29;;;;;;;101.92;15.38;;;24.50;75.80;;;;;;1897098;76;21001;-56
2021/06/20 00:20:59;;;;;;;106.07;17.10;;;24.50;76.10;;;;;;1897121;76;21034;-56
2021/06/20 00:23:29;;;;;;;100.85;13.93;;;24.50;76.10;;;;;;1897036;76;21026;-56
2021/06/20 00:25:58;;;;;;;101.07;16.32;;;24.40;76.00;;;;;;1897132;75;21026;-56
2021/06/20 00:28:27;;;;;;;98.17;17.35;;;24.40;76.10;;;;;;1897308;76;20994;-56
2021/06/20 00:30:57;;;;;;;70.17;14.83;;;24.30;76.20;;;;;;1897372;76;21042;-56
2021/06/20 00:33:26;;;;;;;69.12;13.72;;;24.30;76.50;;;;;;1897051;76;21026;-55
2021/06/20 00:35:57;;;;;;;69.82;12.85;;;24.30;76.80;;;;;;1897202;74;21025;-54
2021/06/20 00:38:26;;;;;;;47.40;10.70;;;24.30;76.90;;;;;;1897186;76;21464;-55
2021/06/20 00:40:56;;;;;;;41.37;9.83;;;24.30;77.10;;;;;;1897114;75;21054;-55
2021/06/20 00:43:25;;;;;;;29.67;8.95;;;24.30;77.50;;;;;;1897075;76;21029;-55
2021/06/20 00:45:55;;;;;;;15.78;8.10;;;24.30;77.60;;;;;;1897254;76;21006;-55
2021/06/20 00:48:24;;;;;;;11.60;7.78;;;24.30;77.80;;;;;;1897064;75;21033;-56
2021/06/20 00:50:53;;;;;;;14.23;8.05;;;24.40;77.90;;;;;;1897073;76;21091;-56
2021/06/20 00:53:23;;;;;;;8.98;8.00;;;24.40;77.90;;;;;;1897194;76;21154;-55
2021/06/20 00:55:52;;;;;;;14.73;7.72;;;24.50;77.90;;;;;;1897136;75;21026;-55
2021/06/20 00:58:22;;;;;;;27.40;8.53;;;24.50;78.00;;;;;;1897091;75;21025;-56
2021/06/20 01:00:51;;;;;;;22.10;9.90;;;24.50;78.00;;;;;;1897142;76;21076;-55
2021/06/20 01:03:21;;;;;;;24.57;9.38;;;24.50;78.00;;;;;;1866333;76;21054;-56
2021/06/20 01:05:50;;;;;;;24.80;7.97;;;24.50;78.20;;;;;;1863081;77;21023;-54
2021/06/20 01:08:20;;;;;;;21.40;8.75;;;24.50;78.40;;;;;;1863024;77;21098;-56
2021/06/20 01:10:49;;;;;;;23.38;8.50;;;24.50;78.60;;;;;;1863140;77;21030;-55
2021/06/20 01:13:20;;;;;;;35.17;8.55;;;24.40;78.60;;;;;;1863089;77;21030;-55
2021/06/20 01:15:51;;;;;;;22.40;8.15;;;24.40;78.90;;;;;;1863110;77;21011;-56
2021/06/20 01:18:21;;;;;;;26.68;9.00;;;24.30;79.10;;;;;;1863196;77;21097;-55
2021/06/20 01:20:50;;;;;;;27.70;9.53;;;24.20;79.40;;;;;;1863123;76;21031;-55
2021/06/20 01:23:19;;;;;;;22.37;8.08;;;24.20;79.70;;;;;;1863191;76;21031;-55
2021/06/20 01:25:51;;;;;;;27.25;9.48;;;24.20;79.70;;;;;;1863375;77;21481;-55
2021/06/20 01:28:25;;;;;;;21.30;8.03;;;24.20;79.90;;;;;;1863070;76;21101;-54
2021/06/20 01:30:57;;;;;;;29.70;9.30;;;24.20;79.90;;;;;;1862656;77;21031;-55
2021/06/20 01:33:21;;;;;;;25.00;7.87;;;24.20;79.80;;;;;;1862467;76;21093;-55
2021/06/20 01:35:51;;;;;;;22.87;8.28;;;24.30;79.90;;;;;;1863157;77;21114;-54
2021/06/20 01:38:20;;;;;;;28.87;10.45;;;24.30;79.80;;;;;;1863105;77;21027;-55
2021/06/20 01:40:50;;;;;;;26.23;9.68;;;24.30;79.80;;;;;;1863054;76;21035;-55
2021/06/20 01:43:19;;;;;;;27.82;9.65;;;24.30;80.00;;;;;;1863217;76;21027;-54
2021/06/20 01:45:48;;;;;;;35.45;10.08;;;24.20;80.10;;;;;;1863234;77;21117;-55
2021/06/20 01:48:17;;;;;;;46.80;10.45;;;24.20;80.30;;;;;;1863065;77;21089;-55
2021/06/20 01:50:47;;;;;;;36.35;9.85;;;24.10;80.70;;;;;;1863209;77;21055;-55
2021/06/20 01:53:17;;;;;;;34.55;10.38;;;24.10;81.00;;;;;;1863079;76;21023;-55
2021/06/20 01:55:47;;;;;;;49.10;9.80;;;24.10;81.20;;;;;;1863106;76;21101;-55
2021/06/20 01:58:20;;;;;;;46.80;11.78;;;24.10;81.20;;;;;;1863184;76;21030;-55
2021/06/20 02:00:52;;;;;;;43.87;11.88;;;24.10;81.10;;;;;;1863306;77;21031;-56
2021/06/20 02:03:23;;;;;;;38.42;10.35;;;24.10;81.20;;;;;;1869125;75;21590;-55
2021/06/20 02:05:54;;;;;;;54.83;11.20;;;24.10;81.30;;;;;;1875288;76;21125;-55
2021/06/20 02:08:24;;;;;;;47.15;10.23;;;24.10;81.40;;;;;;1875389;75;21301;-55
2021/06/20 02:10:55;;;;;;;60.48;11.75;;;24.00;81.50;;;;;;1875314;76;21028;-55
2021/06/20 02:13:27;;;;;;;46.77;9.75;;;24.00;81.50;;;;;;1875260;75;21073;-55
2021/06/20 02:15:56;;;;;;;52.17;11.43;;;23.90;81.50;;;;;;1875153;76;21542;-54
2021/06/20 02:18:26;;;;;;;56.28;12.40;;;23.90;81.50;;;;;;1875176;76;21035;-54
2021/06/20 02:20:56;;;;;;;53.17;13.80;;;23.80;81.50;;;;;;1875193;76;21010;-55
2021/06/20 02:23:25;;;;;;;61.63;10.68;;;23.80;81.50;;;;;;1875264;76;21093;-55
2021/06/20 02:25:54;;;;;;;44.73;9.78;;;23.70;81.70;;;;;;1875303;76;21570;-55
2021/06/20 02:28:23;;;;;;;48.63;11.55;;;23.70;81.70;;;;;;1875156;76;21007;-54
2021/06/20 02:30:53;;;;;;;51.18;11.57;;;23.60;82.10;;;;;;1875120;76;21148;-55
2021/06/20 02:33:22;;;;;;;54.55;12.40;;;23.60;82.30;;;;;;1875479;76;21085;-55
2021/06/20 02:35:52;;;;;;;46.20;13.00;;;23.60;82.60;;;;;;1875360;76;21105;-55
2021/06/20 02:38:21;;;;;;;54.93;10.98;;;23.50;82.70;;;;;;1875379;75;21022;-56
2021/06/20 02:40:51;;;;;;;38.33;9.40;;;23.40;82.80;;;;;;1875380;76;21007;-55
2021/06/20 02:43:20;;;;;;;41.73;10.18;;;23.40;83.30;;;;;;1875255;76;21007;-55
2021/06/20 02:45:49;;;;;;;37.33;9.93;;;23.30;83.50;;;;;;1875274;75;21027;-55
2021/06/20 02:48:19;;;;;;;38.00;10.15;;;23.30;83.70;;;;;;1875302;76;21096;-54
2021/06/20 02:50:49;;;;;;;36.13;9.83;;;23.30;83.80;;;;;;1875267;76;21054;-54
2021/06/20 02:53:19;;;;;;;32.05;11.12;;;23.30;84.00;;;;;;1874981;76;21062;-55
2021/06/20 02:55:49;;;;;;;33.45;9.63;;;23.30;83.90;;;;;;1875339;76;21101;-55
2021/06/20 02:58:18;;;;;;;30.40;10.78;;;23.30;84.00;;;;;;1875377;76;21097;-56
2021/06/20 03:00:48;;;;;;;31.60;11.15;;;23.30;84.10;;;;;;1875233;76;21093;-55
2021/06/20 03:03:18;;;;;;;28.17;10.63;;;23.20;84.10;;;;;;1879407;75;21119;-55
2021/06/20 03:05:47;;;;;;;21.05;8.95;;;23.30;84.40;;;;;;1869108;76;21035;-55
2021/06/20 03:08:16;;;;;;;26.85;9.65;;;23.30;84.40;;;;;;1863143;76;21031;-53
2021/06/20 03:10:46;;;;;;;22.22;9.83;;;23.40;84.40;;;;;;1863153;76;21097;-54
2021/06/20 03:13:15;;;;;;;31.60;11.95;;;23.40;84.40;;;;;;1863120;76;21129;-54
2021/06/20 03:15:46;;;;;;;28.02;10.05;;;23.40;84.30;;;;;;1863118;76;21066;-55
2021/06/20 03:18:15;;;;;;;27.55;9.95;;;23.50;84.20;;;;;;1863164;77;21136;-54
2021/06/20 03:20:44;;;;;;;33.28;12.03;;;23.50;84.20;;;;;;1863117;77;21027;-54
2021/06/20 03:23:14;;;;;;;22.13;9.98;;;23.60;84.30;;;;;;1863264;77;21121;-53
2021/06/20 03:25:43;;;;;;;32.60;11.40;;;23.60;84.30;;;;;;1863111;77;21089;-52
2021/06/20 03:28:13;;;;;;;26.90;9.55;;;23.60;84.60;;;;;;1863061;76;21093;-53
2021/06/20 03:30:44;;;;;;;26.70;9.70;;;23.50;84.60;;;;;;1863240;76;21046;-53
2021/06/20 03:33:13;;;;;;;28.02;9.65;;;23.50;84.70;;;;;;1863079;77;21035;-55
2021/06/20 03:35:43;;;;;;;20.32;9.13;;;23.60;84.90;;;;;;1863086;77;21043;-53
2021/06/20 03:38:12;;;;;;;17.65;9.13;;;23.60;84.90;;;;;;1863117;77;21031;-54
2021/06/20 03:40:41;;;;;;;16.95;9.88;;;23.60;84.80;;;;;;1863166;76;21511;-54
2021/06/20 03:43:11;;;;;;;14.73;8.83;;;23.70;84.70;;;;;;1863098;76;21102;-53
2021/06/20 03:45:40;;;;;;;16.05;9.45;;;23.80;84.70;;;;;;1863048;76;21112;-54
2021/06/20 03:48:10;;;;;;;16.82;9.78;;;23.80;84.70;;;;;;1863140;77;21070;-53
2021/06/20 03:50:39;;;;;;;13.43;8.98;;;23.80;84.60;;;;;;1863038;77;21007;-53
2021/06/20 03:53:11;;;;;;;16.00;9.30;;;23.90;84.60;;;;;;1863086;77;21118;-54
2021/06/20 03:55:40;;;;;;;14.25;9.18;;;24.00;84.60;;;;;;1863100;76;21481;-53
2021/06/20 03:58:09;;;;;;;10.98;8.95;;;24.10;84.50;;;;;;1863107;76;21109;-52
2021/06/20 04:00:39;;;;;;;12.33;9.08;;;24.10;84.50;;;;;;1863134;77;21037;-53
2021/06/20 04:03:08;;;;;;;11.60;9.88;;;24.10;84.40;;;;;;1863198;76;21027;-53
2021/06/20 04:05:38;;;;;;;11.35;9.25;;;24.20;84.40;;;;;;1880200;75;21070;-54
2021/06/20 04:08:08;;;;;;;11.08;8.90;;;24.20;84.20;;;;;;1897115;76;21100;-53
2021/06/20 04:10:37;;;;;;;12.55;8.95;;;24.20;84.10;;;;;;1897219;75;21089;-54
2021/06/20 04:13:06;;;;;;;10.38;9.18;;;24.30;83.90;;;;;;1897042;75;21124;-53
2021/06/20 04:15:36;;;;;;;12.30;9.58;;;24.30;83.90;;;;;;1897038;76;21027;-52
2021/06/20 04:18:06;;;;;;;13.83;9.48;;;24.30;83.90;;;;;;1897087;75;21069;-53
2021/06/20 04:20:35;;;;;;;13.53;10.13;;;24.40;84.00;;;;;;1897128;75;21139;-54
2021/06/20 04:23:09;;;;;;;13.40;9.95;;;24.50;84.00;;;;;;1897160;76;21069;-53
2021/06/20 04:25:39;;;;;;;13.85;10.35;;;24.50;84.20;;;;;;1897246;75;21029;-54
2021/06/20 04:28:09;;;;;;;14.73;8.85;;;24.50;84.10;;;;;;1897082;75;21017;-54
2021/06/20 04:30:38;;;;;;;13.15;8.90;;;24.50;84.00;;;;;;1897009;75;21104;-54
2021/06/20 04:33:07;;;;;;;12.98;8.70;;;24.50;83.90;;;;;;1897140;75;21518;-54
2021/06/20 04:35:37;;;;;;;13.95;9.45;;;24.60;83.90;;;;;;1897039;74;21025;-53
2021/06/20 04:38:07;;;;;;;13.88;8.15;;;24.60;83.90;;;;;;1897325;76;21091;-55
2021/06/20 04:40:39;;;;;;;11.18;9.18;;;24.70;83.80;;;;;;1897297;74;21104;-54
2021/06/20 04:43:23;;;;;;;8.80;7.75;;;24.90;83.80;;;;;;1897324;76;21053;-55
2021/06/20 04:45:42;;;;;;;13.32;7.75;;;25.10;83.40;;;;;;1894863;76;21113;-55
2021/06/20 04:48:11;;;;;;;8.30;6.85;;;25.20;82.70;;;;;;1897204;76;21072;-55
2021/06/20 04:50:41;;;;;;;8.33;7.45;;;25.30;82.00;;;;;;1897112;75;21096;-56
2021/06/20 04:53:10;;;;;;;11.55;7.62;;;25.40;82.00;;;;;;1897155;75;21090;-55
2021/06/20 04:55:39;;;;;;;9.75;7.37;;;25.60;81.90;;;;;;1897182;76;21088;-55
2021/06/20 04:58:09;;;;;;;14.58;8.33;;;25.60;81.20;;;;;;1897180;76;21045;-54
2021/06/20 05:00:38;;;;;;;16.55;12.50;;;25.70;81.20;;;;;;1897432;74;21041;-55
2021/06/20 05:03:08;;;;;;;9.95;7.22;;;25.80;80.90;;;;;;1897168;76;21030;-55
2021/06/20 05:05:38;;;;;;;7.35;6.65;;;25.80;80.60;;;;;;1888418;75;21067;-55
2021/06/20 05:08:07;;;;;;;9.35;7.25;;;26.00;80.30;;;;;;1863198;76;21035;-55
2021/06/20 05:10:37;;;;;;;8.95;7.62;;;26.00;79.80;;;;;;1863035;77;21103;-55
2021/06/20 05:13:06;;;;;;;9.05;6.70;;;26.10;79.60;;;;;;1863129;77;21019;-54
2021/06/20 05:15:36;;;;;;;8.18;6.97;;;26.10;79.30;;;;;;1863103;77;21094;-56
2021/06/20 05:18:08;;;;;;;8.95;7.10;;;26.20;79.10;;;;;;1863170;77;21078;-55
2021/06/20 05:20:38;;;;;;;7.55;6.20;;;26.20;79.00;;;;;;1862997;77;21027;-55
2021/06/20 05:23:08;;;;;;;9.50;6.60;;;26.30;78.60;;;;;;1863080;77;21023;-55
2021/06/20 05:25:37;;;;;;;7.85;6.45;;;26.30;78.80;;;;;;1863163;76;21035;-55
2021/06/20 05:28:07;;;;;;;8.75;7.00;;;26.40;78.50;;;;;;1863144;77;21004;-54
2021/06/20 05:30:37;;;;;;;9.15;7.00;;;26.50;78.30;;;;;;1863219;77;21039;-55
2021/06/20 05:33:06;;;;;;;8.23;6.05;;;26.60;77.90;;;;;;1863248;76;21089;-55
2021/06/20 05:35:35;;;;;;;8.40;6.45;;;26.60;77.80;;;;;;1863255;77;21066;-55
2021/06/20 05:38:05;;;;;;;6.15;5.53;;;26.70;77.40;;;;;;1863128;77;21450;-55
2021/06/20 05:40:36;;;;;;;9.98;7.10;;;26.80;77.00;;;;;;1863122;76;21031;-54
2021/06/20 05:43:05;;;;;;;8.08;6.10;;;26.90;76.70;;;;;;1863170;76;21082;-55
2021/06/20 05:45:35;;;;;;;8.10;7.30;;;26.90;76.60;;;;;;1863111;76;21029;-55
2021/06/20 05:48:05;;;;;;;6.08;5.58;;;27.00;75.70;;;;;;1863152;76;21113;-56
2021/06/20 05:50:34;;;;;;;6.72;5.72;;;27.00;76.00;;;;;;1863071;76;21023;-55
2021/06/20 05:53:04;;;;;;;6.55;5.22;;;27.10;76.10;;;;;;1863136;76;21023;-54
2021/06/20 05:55:33;;;;;;;7.03;5.62;;;27.10;75.50;;;;;;1863298;77;21096;-55
2021/06/20 05:58:03;;;;;;;6.05;4.83;;;27.20;75.40;;;;;;1863170;77;21027;-55
2021/06/20 06:00:37;;;;;;;6.60;5.45;;;27.30;74.60;;;;;;1863155;76;21084;-55
2021/06/20 06:03:04;;;;;;;11.15;5.62;;;27.30;73.90;;;;;;1862469;77;21116;-55
2021/06/20 06:05:33;;;;;;;6.08;5.47;;;27.30;73.60;;;;;;1863219;76;21003;-56
2021/06/20 06:08:03;;;;;;;5.55;5.05;;;27.30;73.30;;;;;;1863387;75;21059;-55
2021/06/20 06:10:32;;;;;;;15.35;6.20;;;27.40;73.20;;;;;;1863074;77;21023;-56
2021/06/20 06:13:02;;;;;;;5.78;4.50;;;27.50;72.10;;;;;;1863086;76;21085;-55
2021/06/20 06:15:32;;;;;;;9.75;5.50;;;27.50;71.40;;;;;;1863126;77;21090;-55
2021/06/20 06:18:01;;;;;;;5.78;4.92;;;27.60;70.40;;;;;;1863202;77;21031;-55
2021/06/20 06:20:31;;;;;;;7.67;4.80;;;27.70;70.00;;;;;;1863068;76;21085;-55
2021/06/20 06:23:00;;;;;;;6.87;5.20;;;27.80;70.10;;;;;;1863216;77;21035;-55
2021/06/20 06:25:30;;;;;;;4.42;4.03;;;27.90;69.90;;;;;;1863144;76;21092;-55
2021/06/20 06:28:01;;;;;;;8.98;7.85;;;28.00;69.30;;;;;;1863301;77;21145;-55
2021/06/20 06:30:30;;;;;;;5.12;4.65;;;28.10;68.90;;;;;;1863382;77;21525;-55
2021/06/20 06:33:00;;;;;;;7.28;4.70;;;28.10;68.20;;;;;;1863361;77;21027;-54
2021/06/20 06:35:29;;;;;;;6.97;4.42;;;28.20;68.40;;;;;;1863334;77;21493;-55
2021/06/20 06:37:59;;;;;;;6.40;4.80;;;28.20;67.90;;;;;;1863287;77;21007;-55
2021/06/20 06:40:29;;;;;;;3.90;3.50;;;28.30;67.80;;;;;;1863101;77;21109;-56
2021/06/20 06:42:58;;;;;;;4.47;4.00;;;28.40;67.60;;;;;;1863118;76;21051;-54
2021/06/20 06:45:28;;;;;;;8.60;4.78;;;28.50;67.00;;;;;;1863176;77;21105;-54
2021/06/20 06:47:57;;;;;;;6.35;4.40;;;28.50;66.60;;;;;;1863062;76;21097;-55
2021/06/20 06:50:27;;;;;;;5.90;4.40;;;28.60;66.50;;;;;;1863019;77;21039;-55
2021/06/20 06:52:57;;;;;;;6.95;4.70;;;28.60;66.50;;;;;;1863106;77;21051;-55
2021/06/20 06:55:26;;;;;;;5.12;3.95;;;28.60;66.20;;;;;;1863081;77;21140;-55
2021/06/20 06:57:56;;;;;;;6.22;4.83;;;28.60;65.80;;;;;;1863244;77;21027;-55
2021/06/20 07:00:25;;;;;;;6.85;4.80;;;28.70;65.80;;;;;;1863044;77;21081;-55
2021/06/20 07:02:56;;;;;;;9.40;4.85;;;28.80;65.60;;;;;;1863028;77;21023;-55
2021/06/20 07:05:26;;;;;;;9.65;5.00;;;28.80;65.70;;;;;;1862780;76;21027;-55
2021/06/20 07:07:56;;;;;;;9.43;4.75;;;28.90;65.50;;;;;;1863056;75;21051;-55
2021/06/20 07:10:26;;;;;;;6.50;4.42;;;29.00;64.90;;;;;;1863091;77;21039;-55
2021/06/20 07:12:55;;;;;;;4.22;3.80;;;29.10;64.40;;;;;;1863033;76;21077;-56
2021/06/20 07:15:25;;;;;;;5.75;4.28;;;29.20;63.80;;;;;;1863233;77;21019;-55
2021/06/20 07:17:55;;;;;;;5.22;4.28;;;29.20;63.60;;;;;;1863282;77;21007;-55
2021/06/20 07:20:25;;;;;;;5.72;4.55;;;29.20;64.10;;;;;;1863100;76;21031;-54
2021/06/20 07:22:54;;;;;;;4.10;3.70;;;29.30;64.70;;;;;;1863170;76;21007;-55
2021/06/20 07:25:24;;;;;;;8.75;5.20;;;29.30;64.40;;;;;;1862984;76;21020;-55
2021/06/20 07:27:54;;;;;;;8.45;5.15;;;29.40;64.50;;;;;;1863078;77;21051;-55
2021/06/20 07:30:24;;;;;;;8.05;5.08;;;29.40;64.60;;;;;;1862993;76;21007;-55
2021/06/20 07:32:54;;;;;;;8.60;4.20;;;29.50;64.30;;;;;;1862914;76;21027;-54
2021/06/20 07:35:24;;;;;;;6.25;4.45;;;29.60;64.40;;;;;;1862973;77;21092;-55
2021/06/20 07:37:53;;;;;;;5.15;4.40;;;29.60;64.20;;;;;;1863090;77;21039;-54
2021/06/20 07:40:23;;;;;;;4.47;4.08;;;29.70;63.70;;;;;;1863143;77;21062;-55
2021/06/20 07:42:52;;;;;;;5.45;3.75;;;29.70;64.00;;;;;;1862994;77;21043;-54
2021/06/20 07:45:22;;;;;;;5.03;4.47;;;29.70;63.80;;;;;;1862971;76;21101;-54
2021/06/20 07:47:53;;;;;;;7.30;4.35;;;29.70;63.90;;;;;;1862947;76;21034;-55
2021/06/20 07:50:22;;;;;;;5.70;4.33;;;29.70;63.70;;;;;;1862930;76;21024;-54
2021/06/20 07:52:52;;;;;;;5.60;4.17;;;29.80;63.50;;;;;;1862902;77;21023;-55
2021/06/20 07:55:21;;;;;;;5.50;3.98;;;29.80;63.40;;;;;;1863046;77;21164;-55
2021/06/20 07:57:51;;;;;;;8.05;4.12;;;29.90;62.80;;;;;;1862983;76;21035;-55
2021/06/20 08:00:21;;;;;;;7.08;4.03;;;29.90;62.90;;;;;;1862945;77;21023;-55
2021/06/20 08:02:51;;;;;;;6.83;3.83;;;30.00;62.70;;;;;;1863069;77;21035;-55
2021/06/20 08:05:20;;;;;;;6.05;4.12;;;30.00;63.00;;;;;;1862968;77;21031;-55
2021/06/20 08:07:50;;;;;;;6.30;4.10;;;30.10;62.60;;;;;;1873731;75;21057;-55
2021/06/20 08:10:21;;;;;;;10.20;4.50;;;30.20;62.10;;;;;;1895727;76;21033;-55
2021/06/20 08:12:50;;;;;;;6.22;3.75;;;30.20;61.60;;;;;;1896908;76;21507;-54
2021/06/20 08:15:20;;;;;;;6.90;4.15;;;30.20;61.20;;;;;;1896976;76;21006;-55
2021/06/20 08:17:49;;;;;;;4.47;3.77;;;30.30;61.50;;;;;;1897069;76;21042;-55
2021/06/20 08:20:19;;;;;;;9.08;4.58;;;30.30;61.10;;;;;;1897025;76;21083;-55
2021/06/20 08:22:48;;;;;;;5.00;4.50;;;30.30;61.00;;;;;;1897076;76;21026;-54
2021/06/20 08:25:17;;;;;;;7.05;4.22;;;30.30;61.20;;;;;;1897070;76;21045;-54
2021/06/20 08:27:47;;;;;;;6.45;3.70;;;30.40;60.90;;;;;;1897081;76;21115;-53
2021/06/20 08:30:17;;;;;;;9.30;5.33;;;30.40;61.20;;;;;;1897102;76;21025;-54
2021/06/20 08:32:47;;;;;;;5.60;4.08;;;30.50;61.40;;;;;;1897064;76;21134;-55
2021/06/20 08:35:18;;;;;;;5.40;3.70;;;30.50;61.30;;;;;;1897068;76;21088;-55
2021/06/20 08:37:47;;;;;;;4.78;4.28;;;30.50;61.00;;;;;;1897331;75;21131;-55
2021/06/20 08:40:17;;;;;;;7.85;4.72;;;30.40;60.90;;;;;;1897089;76;21072;-55
2021/06/20 08:42:47;;;;;;;8.65;4.37;;;30.40;61.30;;;;;;1897239;76;21100;-55
2021/06/20 08:45:17;;;;;;;8.10;6.08;;;30.40;61.40;;;;;;1897179;76;21546;-55
2021/06/20 08:47:47;;;;;;;17.02;8.23;;;30.50;61.60;;;;;;1897072;75;21029;-55
2021/06/20 08:50:16;;;;;;;13.30;5.85;;;30.50;61.70;;;;;;1897035;76;21017;-54
2021/06/20 08:52:46;;;;;;;5.53;4.15;;;30.60;61.60;;;;;;1896983;76;21029;-54
2021/06/20 08:55:15;;;;;;;6.03;3.92;;;30.60;61.40;;;;;;1897164;76;21006;-54
2021/06/20 08:57:47;;;;;;;7.60;4.10;;;30.70;61.00;;;;;;1897120;76;21030;-54
2021/06/20 09:00:17;;;;;;;10.35;4.53;;;30.80;60.80;;;;;;1897094;74;21484;-55
2021/06/20 09:03:00;;;;;;;7.05;4.90;;;30.70;60.90;;;;;;1897081;76;21077;-53
2021/06/20 09:05:30;;;;;;;7.40;4.05;;;30.80;60.90;;;;;;1897026;76;21087;-54
2021/06/20 09:08:00;;;;;;;6.08;4.25;;;30.80;60.80;;;;;;1897052;74;21053;-54
2021/06/20 09:10:31;;;;;;;11.83;10.60;;;30.90;60.50;;;;;;1897109;75;21025;-55
2021/06/20 09:13:01;;;;;;;8.80;5.25;;;31.00;60.70;;;;;;1897282;76;21194;-55
2021/06/20 09:15:34;;;;;;;6.45;4.72;;;31.10;60.40;;;;;;1897315;76;21026;-54
2021/06/20 09:18:10;;;;;;;8.23;4.43;;;31.20;60.20;;;;;;1897411;76;21054;-54
2021/06/20 09:20:46;;;;;;;5.92;4.00;;;31.30;60.10;;;;;;1897045;76;21005;-55
2021/06/20 09:23:17;;;;;;;5.35;4.67;;;31.40;59.30;;;;;;1897113;76;21029;-55
2021/06/20 09:26:00;;;;;;;6.30;5.58;;;31.40;59.60;;;;;;1897084;76;21029;-54
2021/06/20 09:28:36;;;;;;;7.95;5.55;;;31.40;60.30;;;;;;1897245;75;21099;-55
2021/06/20 09:31:07;;;;;;;7.50;5.58;;;31.40;60.60;;;;;;1897139;76;21416;-54
2021/06/20 09:33:37;;;;;;;6.20;5.60;;;31.20;61.10;;;;;;1897257;76;21030;-55
2021/06/20 09:36:07;;;;;;;19.70;6.58;;;31.20;60.80;;;;;;1897270;74;21038;-55
2021/06/20 09:38:40;;;;;;;8.70;5.60;;;31.10;60.70;;;;;;1897186;76;21088;-55
2021/06/20 09:41:12;;;;;;;10.32;5.47;;;30.90;61.20;;;;;;1897426;76;21103;-55
2021/06/20 09:43:55;;;;;;;6.10;5.42;;;30.80;61.80;;;;;;1897174;76;21030;-55
2021/06/20 09:46:25;;;;;;;7.95;6.17;;;30.80;62.30;;;;;;1897213;76;21124;-53
2021/06/20 09:48:55;;;;;;;7.45;6.30;;;30.70;62.00;;;;;;1897110;76;21141;-54
2021/06/20 09:51:29;;;;;;;7.58;6.00;;;30.60;62.40;;;;;;1896990;76;21108;-54
2021/06/20 09:53:58;;;;;;;;;;;30.50;62.60;;;;;;1899974;74;21087;-54
2021/06/20 09:56:30;;;;;;;7.87;5.67;;;30.50;62.80;;;;;;1897126;74;20448;-55
2021/06/20 09:59:04;;;;;;;8.43;6.25;;;30.50;62.30;;;;;;1897229;74;21096;-53
2021/06/20 10:01:38;;;;;;;8.53;5.90;;;30.50;61.80;;;;;;1897110;75;21072;-53
2021/06/20 10:04:07;;;;;;;11.73;5.75;;;30.40;62.10;;;;;;1897081;74;21092;-53
2021/06/20 10:06:37;;;;;;;7.42;5.40;;;30.40;62.40;;;;;;1897152;76;21030;-54
2021/06/20 10:09:06;;;;;;;11.12;5.53;;;30.20;63.10;;;;;;1885324;75;21062;-53
2021/06/20 10:11:36;;;;;;;7.12;6.50;;;30.30;63.80;;;;;;1862978;77;21089;-54
2021/06/20 10:14:05;;;;;;;6.47;5.90;;;30.50;63.10;;;;;;1863031;77;21019;-55
2021/06/20 10:16:37;;;;;;;6.17;5.58;;;30.60;62.70;;;;;;1862893;77;21085;-53
2021/06/20 10:19:23;;;;;;;7.22;5.62;;;30.50;62.10;;;;;;1862911;77;21090;-52
2021/06/20 10:22:05;;;;;;;8.18;5.50;;;30.50;62.40;;;;;;1863091;76;21125;-53
2021/06/20 10:24:55;;;;;;;10.60;6.92;;;30.40;62.80;;;;;;1863019;76;21100;-53
2021/06/20 10:27:37;;;;;;;9.05;6.33;;;30.40;63.30;;;;;;1863092;77;21077;-52
2021/06/20 10:30:09;;;;;;;26.73;23.95;;;30.30;63.10;;;;;;1863119;77;21050;-54
2021/06/20 10:32:42;;;;;;;11.10;6.95;;;30.40;63.50;;;;;;1860498;77;21066;-53
2021/06/20 10:35:16;;;;;;;10.45;8.90;;;30.40;63.30;;;;;;1863087;77;21089;-54
2021/06/20 10:37:47;;;;;;;10.95;8.75;;;30.50;63.10;;;;;;1855237;76;21188;-53
2021/06/20 10:40:24;;;;;;;8.25;6.05;;;30.70;62.70;;;;;;1863064;77;21089;-54
2021/06/20 10:42:55;;;;;;;7.30;6.17;;;30.80;62.50;;;;;;1863079;77;21106;-54
2021/06/20 10:45:36;;;;;;;11.18;6.40;;;30.90;61.90;;;;;;1863065;77;21000;-55
2021/06/20 10:48:25;;;;;;;8.38;6.03;;;31.00;62.60;;;;;;1853201;76;21089;-54
2021/06/20 10:50:57;;;;;;;7.72;5.60;;;31.10;61.80;;;;;;1862979;77;21027;-52
2021/06/20 10:53:28;;;;;;;11.05;5.67;;;31.00;62.40;;;;;;1863316;77;21117;-54
2021/06/20 10:56:00;;;;;;;11.35;6.40;;;31.00;61.90;;;;;;1863220;77;21042;-54
2021/06/20 10:58:41;;;;;;;10.03;7.00;;;31.00;61.90;;;;;;1863340;77;21092;-54
2021/06/20 11:01:09;;;;;;;8.70;6.22;;;31.00;62.60;;;;;;1863042;76;21070;-53
2021/06/20 11:03:40;;;;;;;11.60;6.47;;;31.10;62.40;;;;;;1863160;77;20999;-53
2021/06/20 11:06:13;;;;;;;13.22;6.30;;;31.10;62.20;;;;;;1863196;76;21007;-54
2021/06/20 11:08:56;;;;;;;22.20;7.33;;;31.10;62.00;;;;;;1863384;76;21089;-54
2021/06/20 11:11:28;;;;;;;12.45;5.75;;;31.20;62.80;;;;;;1863061;77;21003;-52
2021/06/20 11:14:00;;;;;;;7.85;5.83;;;31.30;62.10;;;;;;1863286;77;21105;-54
2021/06/20 11:16:44;;;;;;;10.48;6.15;;;31.30;61.50;;;;;;1863216;77;21430;-53
2021/06/20 11:19:27;;;;;;;8.20;6.08;;;31.20;61.50;;;;;;1863476;77;21073;-54
2021/06/20 11:22:05;;;;;;;14.18;6.22;;;31.10;61.70;;;;;;1863234;76;21015;-55
2021/06/20 11:24:49;;;;;;;19.87;7.12;;;31.00;61.80;;;;;;1862972;76;21562;-55
2021/06/20 11:27:19;;;;;;;;;;;31.10;62.40;;;;;;1866041;76;21003;-55
2021/06/20 11:29:52;;;;;;;16.97;6.12;;;31.10;63.40;;;;;;1863097;77;20144;-54
2021/06/20 11:32:27;;;;;;;18.82;7.17;;;31.10;62.70;;;;;;1863171;77;21019;-54
2021/06/20 11:35:00;;;;;;;18.30;6.20;;;31.20;62.60;;;;;;1863086;76;21145;-54
2021/06/20 11:37:38;;;;;;;20.05;6.72;;;31.20;62.30;;;;;;1862485;77;21047;-54
2021/06/20 11:40:16;;;;;;;15.80;6.20;;;31.20;62.20;;;;;;1863088;77;21144;-55
2021/06/20 11:42:48;;;;;;;21.77;7.33;;;31.10;62.80;;;;;;1863005;77;21019;-55
2021/06/20 11:45:20;;;;;;;24.65;7.15;;;31.10;62.60;;;;;;1862999;77;21141;-55
2021/06/20 11:47:54;;;;;;;24.80;6.87;;;31.10;62.60;;;;;;1863209;77;21038;-54
2021/06/20 11:50:28;;;;;;;19.15;6.87;;;31.10;62.70;;;;;;1863316;76;21019;-55
2021/06/20 11:53:01;;;;;;;29.60;6.97;;;31.20;63.30;;;;;;1863230;76;21148;-55
2021/06/20 11:55:35;;;;;;;20.08;5.87;;;31.20;62.50;;;;;;1863150;77;21097;-55
2021/06/20 11:58:09;;;;;;;19.42;6.80;;;31.20;62.00;;;;;;1863400;77;21008;-54
2021/06/20 12:00:41;;;;;;;19.62;6.12;;;31.30;61.60;;;;;;1863298;77;21105;-55
2021/06/20 12:03:12;;;;;;;19.10;7.12;;;31.30;62.10;;;;;;1863374;76;21008;-55
2021/06/20 12:05:52;;;;;;;17.95;5.97;;;31.40;62.60;;;;;;1863223;76;21172;-55
2021/06/20 12:08:21;;;;;;;24.43;6.62;;;31.50;62.40;;;;;;1863265;77;21540;-55
2021/06/20 12:10:51;;;;;;;19.80;6.17;;;31.50;61.70;;;;;;1882569;75;21057;-56
2021/06/20 12:13:20;;;;;;;17.90;6.12;;;31.50;62.10;;;;;;1897131;75;21087;-56
2021/06/20 12:15:52;;;;;;;24.77;6.42;;;31.50;62.40;;;;;;1897128;75;21002;-55
2021/06/20 12:18:22;;;;;;;13.30;6.87;;;31.60;62.20;;;;;;1894951;76;21456;-56
2021/06/20 12:20:55;;;;;;;13.70;6.37;;;31.60;61.70;;;;;;1897243;76;21090;-56
2021/06/20 12:23:29;;;;;;;19.00;5.95;;;31.60;61.50;;;;;;1897328;76;21441;-55
2021/06/20 12:25:57;;;;;;;;;;;31.70;61.70;;;;;;1900080;76;21492;-55
2021/06/20 12:28:27;;;;;;;26.33;7.20;;;31.80;61.40;;;;;;1897292;75;20105;-56
2021/06/20 12:30:57;;;;;;;16.75;6.70;;;31.90;62.00;;;;;;1897134;75;21425;-55
2021/06/20 12:33:28;;;;;;;13.28;5.80;;;31.90;61.40;;;;;;1897209;74;21005;-55
2021/06/20 12:36:02;;;;;;;20.35;6.42;;;31.90;60.80;;;;;;1897188;75;21354;-55
2021/06/20 12:38:37;;;;;;;18.65;6.60;;;31.70;60.50;;;;;;1897350;76;21095;-55
2021/06/20 12:41:18;;;;;;;22.93;6.45;;;31.50;61.10;;;;;;1897111;75;21099;-56
2021/06/20 12:44:09;;;;;;;22.82;7.62;;;31.30;61.90;;;;;;1897159;76;21163;-56
2021/06/20 12:46:39;;;;;;;24.20;6.72;;;31.30;62.60;;;;;;1897289;76;20998;-56
2021/06/20 12:49:11;;;;;;;17.60;5.90;;;31.40;62.10;;;;;;1897212;74;21022;-55
2021/06/20 12:51:52;;;;;;;20.97;7.40;;;31.60;61.80;;;;;;1895739;75;21455;-55
2021/06/20 12:54:13;;;;;;;24.55;5.95;;;31.70;61.40;;;;;;1893700;76;21041;-55
2021/06/20 12:56:43;;;;;;;19.02;5.40;;;31.80;60.90;;;;;;1897256;75;21070;-55
2021/06/20 12:59:13;;;;;;;21.68;7.95;;;31.90;61.10;;;;;;1897016;76;21025;-54